createdAt,value
2023-03-26T00:02:20.895Z,1.90
2023-03-26T00:07:27.256Z,1.30
2023-03-26T00:12:32.473Z,1.50
2023-03-26T00:17:40.694Z,1.47
2023-03-26T00:22:48.269Z,1.80
2023-03-26T00:27:54.259Z,1.97
2023-03-26T00:33:02.292Z,2.20
2023-03-26T00:38:08.347Z,1.77
2023-03-26T00:43:19.039Z,1.70
2023-03-26T00:48:43.922Z,1.63
2023-03-26T00:53:52.462Z,1.50
2023-03-26T00:59:00.367Z,1.70
2023-03-26T01:04:30.980Z,2.00
2023-03-26T01:09:43.065Z,1.47
2023-03-26T01:14:51.039Z,1.80
2023-03-26T01:20:06.543Z,1.60
2023-03-26T01:25:14.813Z,1.20
2023-03-26T01:30:28.381Z,1.60
2023-03-26T01:35:43.903Z,1.50
2023-03-26T01:40:58.368Z,1.23
2023-03-26T01:46:07.119Z,1.70
2023-03-26T01:51:14.080Z,1.40
2023-03-26T01:56:29.359Z,2.03
2023-03-26T02:01:45.028Z,1.50
2023-03-26T02:06:58.774Z,1.60
2023-03-26T02:12:09.760Z,3.03
2023-03-26T02:17:15.001Z,1.60
2023-03-26T02:22:21.404Z,1.43
2023-03-26T02:27:29.943Z,1.70
2023-03-26T02:32:36.227Z,1.40
2023-03-26T02:37:42.339Z,1.50
2023-03-26T02:42:55.824Z,1.47
2023-03-26T02:48:02.158Z,1.47
2023-03-26T02:53:30.068Z,1.47
2023-03-26T02:59:14.050Z,1.53
2023-03-26T03:04:22.801Z,1.70
2023-03-26T03:09:28.154Z,1.37
2023-03-26T03:15:03.925Z,1.50
2023-03-26T03:20:12.409Z,2.17
2023-03-26T03:25:18.110Z,1.37
2023-03-26T03:30:30.174Z,1.57
2023-03-26T03:35:49.865Z,1.40
2023-03-26T03:40:57.964Z,1.67
2023-03-26T03:46:08.727Z,1.70
2023-03-26T03:51:22.437Z,1.50
2023-03-26T03:56:47.714Z,1.30
2023-03-26T04:02:14.340Z,1.60
2023-03-26T04:07:33.979Z,1.20
2023-03-26T04:12:45.117Z,1.60
2023-03-26T04:17:57.224Z,1.60
2023-03-26T04:23:03.621Z,1.53
2023-03-26T04:28:12.157Z,1.47
2023-03-26T04:33:34.675Z,1.60
2023-03-26T04:38:44.754Z,1.70
2023-03-26T04:43:51.307Z,1.57
2023-03-26T04:49:07.386Z,1.80
2023-03-26T04:54:15.715Z,1.73
2023-03-26T04:59:41.609Z,1.50
2023-03-26T05:04:53.980Z,1.60
2023-03-26T05:10:03.591Z,1.50
2023-03-26T05:15:33.409Z,1.73
2023-03-26T05:20:49.344Z,1.80
2023-03-26T05:25:54.838Z,1.60
2023-03-26T05:31:02.900Z,1.70
2023-03-26T05:36:17.396Z,2.03
2023-03-26T05:41:26.594Z,1.77
2023-03-26T05:46:32.120Z,1.97
2023-03-26T05:51:40.730Z,1.90
2023-03-26T05:57:09.026Z,2.00
2023-03-26T06:02:35.141Z,1.97
2023-03-26T06:08:06.359Z,1.80
2023-03-26T06:13:16.470Z,1.70
2023-03-26T06:18:23.351Z,1.73
2023-03-26T06:23:52.685Z,1.67
2023-03-26T06:29:16.961Z,2.50
2023-03-26T06:34:33.757Z,1.53
2023-03-26T06:39:41.537Z,1.80
2023-03-26T06:45:01.619Z,1.63
2023-03-26T06:50:15.683Z,1.50
2023-03-26T06:55:48.804Z,1.83
2023-03-26T07:01:17.021Z,1.70
2023-03-26T07:06:54.284Z,1.20
2023-03-26T07:12:20.754Z,1.43
2023-03-26T07:17:41.089Z,1.40
2023-03-26T07:23:02.126Z,1.10
2023-03-26T07:28:25.817Z,1.40
2023-03-26T07:34:02.428Z,1.50
2023-03-26T07:39:40.796Z,1.63
2023-03-26T07:45:06.583Z,1.43
2023-03-26T07:50:33.571Z,1.50
2023-03-26T07:55:50.174Z,2.27
2023-03-26T08:01:28.799Z,1.63
2023-03-26T08:06:38.553Z,1.50
2023-03-26T08:12:21.375Z,1.30
2023-03-26T08:17:34.692Z,1.40
2023-03-26T08:22:46.088Z,1.57
2023-03-26T08:28:04.213Z,1.67
2023-03-26T08:33:19.610Z,1.73
2023-03-26T08:38:25.075Z,1.70
2023-03-26T08:43:56.712Z,1.50
2023-03-26T08:49:37.514Z,1.67
2023-03-26T08:55:18.101Z,1.80
2023-03-26T09:00:41.567Z,1.70
2023-03-26T09:06:26.674Z,1.57
2023-03-26T09:12:04.271Z,2.33
2023-03-26T09:17:32.785Z,2.33
2023-03-26T09:23:07.761Z,1.87
2023-03-26T09:28:48.254Z,1.90
2023-03-26T09:34:02.023Z,1.73
2023-03-26T09:39:17.920Z,2.10
2023-03-26T09:44:52.761Z,1.87
2023-03-26T09:50:22.955Z,1.93
2023-03-26T09:55:53.282Z,2.17
2023-03-26T10:01:09.304Z,1.93
2023-03-26T10:06:37.878Z,1.80
2023-03-26T10:12:07.930Z,2.33
2023-03-26T10:17:32.189Z,1.70
2023-03-26T10:22:50.683Z,1.40
2023-03-26T10:28:05.560Z,1.60
2023-03-26T10:33:25.233Z,1.93
2023-03-26T10:38:54.765Z,1.50
2023-03-26T10:44:22.087Z,1.27
2023-03-26T10:49:45.527Z,1.40
2023-03-26T10:54:59.952Z,1.63
2023-03-26T11:00:17.178Z,1.53
2023-03-26T11:05:44.877Z,1.50
2023-03-26T11:10:59.500Z,1.70
2023-03-26T11:16:07.841Z,1.20
2023-03-26T11:21:21.632Z,1.40
2023-03-26T11:26:39.340Z,1.37
2023-03-26T11:31:58.442Z,1.73
2023-03-26T11:37:07.975Z,1.33
2023-03-26T11:42:19.500Z,1.30
2023-03-26T11:47:30.091Z,1.50
2023-03-26T11:52:36.268Z,1.47
2023-03-26T11:57:50.038Z,2.20
2023-03-26T12:03:00.165Z,1.37
2023-03-26T12:08:24.056Z,1.13
2023-03-26T12:13:38.367Z,1.63
2023-03-26T12:18:46.346Z,1.53
2023-03-26T12:24:01.045Z,1.67
2023-03-26T12:29:14.439Z,1.53
2023-03-26T12:34:21.336Z,1.93
2023-03-26T12:40:08.794Z,1.50
2023-03-26T12:45:10.007Z,1.53
2023-03-26T12:50:18.464Z,1.20
2023-03-26T12:55:46.902Z,1.10
2023-03-26T13:01:04.279Z,1.57
2023-03-26T13:06:26.802Z,1.60
2023-03-26T13:11:38.850Z,1.47
2023-03-26T13:16:53.822Z,1.20
2023-03-26T13:22:12.575Z,1.10
2023-03-26T13:27:37.935Z,1.20
2023-03-26T13:32:59.763Z,1.20
2023-03-26T13:38:14.666Z,1.23
2023-03-26T13:43:35.641Z,1.20
2023-03-26T13:48:51.437Z,1.70
2023-03-26T13:54:01.998Z,1.63
2023-03-26T13:59:14.075Z,1.60
2023-03-26T14:04:26.671Z,1.83
2023-03-26T14:09:45.190Z,1.60
2023-03-26T14:14:55.562Z,1.67
2023-03-26T14:20:37.679Z,1.67
2023-03-26T14:26:04.339Z,1.70
2023-03-26T14:31:23.935Z,2.33
2023-03-26T14:36:59.307Z,1.77
2023-03-26T14:42:15.769Z,1.20
2023-03-26T14:47:24.767Z,1.70
2023-03-26T14:52:40.532Z,1.10
2023-03-26T14:58:13.928Z,1.37
2023-03-26T15:03:51.315Z,1.43
2023-03-26T15:09:33.100Z,1.40
2023-03-26T15:15:20.138Z,1.40
2023-03-26T15:20:47.749Z,1.47
2023-03-26T15:26:25.633Z,1.50
2023-03-26T15:32:00.380Z,1.80
2023-03-26T15:37:46.675Z,1.70
2023-03-26T15:43:02.883Z,1.40
2023-03-26T15:48:35.003Z,1.47
2023-03-26T15:53:51.730Z,1.70
2023-03-26T15:59:05.407Z,1.70
2023-03-26T16:04:27.064Z,1.80
2023-03-26T16:09:55.731Z,1.83
2023-03-26T16:15:23.130Z,1.50
2023-03-26T16:20:33.788Z,1.40
2023-03-26T16:25:57.617Z,1.80
2023-03-26T16:31:39.254Z,1.33
2023-03-26T16:36:51.579Z,1.50
2023-03-26T16:42:06.859Z,1.23
2023-03-26T16:47:22.675Z,1.47
2023-03-26T16:52:47.145Z,1.90
2023-03-26T16:57:59.329Z,1.30
2023-03-26T17:03:29.778Z,1.63
2023-03-26T17:08:48.188Z,1.87
2023-03-26T17:14:07.604Z,1.33
2023-03-26T17:19:29.085Z,2.10
2023-03-26T17:24:45.833Z,1.70
2023-03-26T17:31:04.870Z,2.33
2023-03-26T17:36:33.038Z,1.70
2023-03-26T17:42:14.819Z,1.87
2023-03-26T17:47:27.900Z,1.60
2023-03-26T17:52:48.180Z,1.40
2023-03-26T17:58:00.269Z,1.60
2023-03-26T18:03:18.669Z,1.70
2023-03-26T18:08:53.948Z,1.80
2023-03-26T18:14:29.144Z,1.50
2023-03-26T18:19:50.374Z,2.43
2023-03-26T18:25:00.803Z,1.60
2023-03-26T18:30:19.529Z,2.27
2023-03-26T18:35:32.016Z,1.40
2023-03-26T18:40:45.580Z,1.20
2023-03-26T18:45:53.655Z,1.57
2023-03-26T18:51:05.780Z,1.27
2023-03-26T18:56:32.337Z,1.73
2023-03-26T19:01:47.078Z,1.77
2023-03-26T19:06:57.242Z,1.93
2023-03-26T19:12:09.548Z,1.63
2023-03-26T19:17:18.352Z,1.57
2023-03-26T19:22:27.916Z,1.93
2023-03-26T19:27:33.903Z,1.80
2023-03-26T19:32:40.920Z,2.10
2023-03-26T19:37:57.255Z,1.63
2023-03-26T19:43:04.428Z,1.30
2023-03-26T19:48:15.583Z,1.93
2023-03-26T19:53:30.452Z,1.50
2023-03-26T19:58:36.373Z,1.67
2023-03-26T20:03:44.440Z,1.93
2023-03-26T20:08:53.495Z,2.47
2023-03-26T20:13:58.641Z,3.13
2023-03-26T20:19:05.249Z,2.67
2023-03-26T20:24:17.917Z,2.40
2023-03-26T20:29:23.766Z,2.67
2023-03-26T20:34:28.847Z,2.33
2023-03-26T20:39:36.423Z,1.83
2023-03-26T20:44:42.178Z,1.43
2023-03-26T20:49:47.241Z,1.87
2023-03-26T20:54:54.946Z,1.70
2023-03-26T21:00:00.162Z,1.67
2023-03-26T21:05:05.892Z,1.40
2023-03-26T21:10:15.851Z,1.63
2023-03-26T21:15:23.733Z,1.67
2023-03-26T21:20:32.916Z,1.97
2023-03-26T21:25:50.774Z,1.93
2023-03-26T21:30:57.212Z,1.70
2023-03-26T21:36:04.662Z,1.60
2023-03-26T21:41:26.745Z,1.70
2023-03-26T21:46:32.897Z,2.50
2023-03-26T21:51:38.912Z,2.70
2023-03-26T21:56:53.002Z,2.60
2023-03-26T22:02:05.986Z,2.73
2023-03-26T22:07:18.212Z,2.33
2023-03-26T22:12:27.929Z,3.30
2023-03-26T22:17:32.965Z,2.23
2023-03-26T22:22:38.011Z,1.50
2023-03-26T22:27:46.296Z,1.60
2023-03-26T22:32:51.941Z,1.80
2023-03-26T22:38:01.021Z,1.90
2023-03-26T22:43:09.268Z,1.87
2023-03-26T22:48:14.563Z,2.40
2023-03-26T22:53:19.497Z,2.00
2023-03-26T22:58:27.478Z,2.50
2023-03-26T23:03:35.223Z,2.60
2023-03-26T23:08:41.569Z,3.27
2023-03-26T23:13:53.042Z,2.80
2023-03-26T23:18:58.125Z,2.83
2023-03-26T23:24:04.744Z,2.80
2023-03-26T23:29:12.508Z,2.80
2023-03-26T23:34:21.145Z,3.07
2023-03-26T23:39:26.778Z,2.83
2023-03-26T23:44:34.494Z,2.60
2023-03-26T23:49:40.067Z,2.10
2023-03-26T23:54:45.802Z,2.60
2023-03-26T23:59:53.798Z,2.93
